Time;durP1;ratioP1;P1;durP2;ratioP2;P2;SDS_P1;SDS_P2;PMS_P1;PMS_P2;Temp;Humidity;BMP_temperature;BMP_pressure;BME280_temperature;BME280_humidity;BME280_pressure;Samples;Min_cycle;Max_cycle;Signal;HPM_P1;HPM_P2
2023/12/20 00:00:24;;;;;;;15.05;2.65;;;6.30;99.90;;;;;;5047313;28;20370;-72
2023/12/20 00:02:50;;;;;;;13.77;3.42;;;6.30;99.90;;;;;;5049051;28;20063;-72
2023/12/20 00:05:15;;;;;;;10.90;3.00;;;6.30;99.90;;;;;;5041524;28;20021;-72
2023/12/20 00:07:41;;;;;;;18.38;2.20;;;6.20;99.90;;;;;;5043302;28;20041;-71
2023/12/20 00:10:07;;;;;;;14.68;2.17;;;6.30;99.90;;;;;;5050878;28;20021;-71
2023/12/20 00:12:33;;;;;;;23.58;2.80;;;6.40;99.90;;;;;;5047908;28;20098;-72
2023/12/20 00:14:58;;;;;;;7.25;1.63;;;6.40;99.90;;;;;;5047009;28;20040;-71
2023/12/20 00:17:24;;;;;;;9.52;2.22;;;6.50;99.90;;;;;;5048115;28;20052;-72
2023/12/20 00:19:49;;;;;;;20.13;2.92;;;6.50;99.90;;;;;;5051261;28;20477;-71
2023/12/20 00:22:15;;;;;;;13.90;1.70;;;6.60;99.90;;;;;;5051242;28;20021;-71
2023/12/20 00:24:40;;;;;;;16.17;1.92;;;6.60;99.90;;;;;;5043300;28;20034;-71
2023/12/20 00:27:06;;;;;;;18.25;1.73;;;6.70;99.90;;;;;;5047253;28;20029;-72
2023/12/20 00:29:31;;;;;;;18.85;2.00;;;6.70;99.90;;;;;;5049998;28;20489;-71
2023/12/20 00:31:57;;;;;;;11.38;1.73;;;6.70;99.90;;;;;;5051027;28;20056;-72
2023/12/20 00:34:22;;;;;;;14.93;1.85;;;6.70;99.90;;;;;;5048846;28;20047;-72
2023/12/20 00:36:48;;;;;;;18.58;1.40;;;6.70;99.90;;;;;;5042898;28;20029;-71
2023/12/20 00:39:14;;;;;;;13.77;1.77;;;6.70;99.90;;;;;;5045333;28;20378;-71
2023/12/20 00:41:39;;;;;;;12.82;1.70;;;6.60;99.90;;;;;;5050283;28;20166;-72
2023/12/20 00:44:05;;;;;;;8.52;1.70;;;6.50;99.90;;;;;;5048846;28;20017;-72
2023/12/20 00:46:30;;;;;;;11.43;1.50;;;6.50;99.90;;;;;;5050378;28;20039;-72
2023/12/20 00:48:56;;;;;;;15.77;2.10;;;6.50;99.90;;;;;;5051879;28;20119;-72
2023/12/20 00:51:22;;;;;;;15.77;1.65;;;6.40;99.90;;;;;;5054439;28;20385;-72
2023/12/20 00:53:50;;;;;;;12.98;1.52;;;6.30;99.90;;;;;;5052493;28;20055;-72
2023/12/20 00:56:15;;;;;;;14.05;1.48;;;6.30;99.90;;;;;;5048160;28;20032;-71
2023/12/20 00:58:41;;;;;;;12.63;1.38;;;6.20;99.90;;;;;;5052911;28;20029;-71
2023/12/20 01:01:06;;;;;;;13.30;1.80;;;6.20;99.90;;;;;;5054092;28;20108;-72
2023/12/20 01:03:32;;;;;;;13.77;1.75;;;6.20;99.90;;;;;;5054323;28;20025;-71
2023/12/20 01:05:58;;;;;;;8.13;1.67;;;6.10;99.90;;;;;;5049217;28;20029;-71
2023/12/20 01:08:23;;;;;;;12.52;1.85;;;6.10;99.90;;;;;;5051327;28;20072;-71
2023/12/20 01:10:49;;;;;;;20.13;3.28;;;6.00;99.90;;;;;;5054203;28;20444;-72
2023/12/20 01:13:14;;;;;;;9.30;1.60;;;5.90;99.90;;;;;;5049409;28;20030;-72
2023/12/20 01:15:40;;;;;;;16.35;3.58;;;5.90;99.90;;;;;;5052682;28;20052;-71
2023/12/20 01:18:05;;;;;;;11.00;2.03;;;5.90;99.90;;;;;;5044903;28;20071;-71
2023/12/20 01:20:31;;;;;;;6.68;2.13;;;5.90;99.90;;;;;;5053850;28;20021;-71
2023/12/20 01:22:57;;;;;;;12.20;3.25;;;5.90;99.90;;;;;;5054240;28;20044;-72
2023/12/20 01:25:23;;;;;;;12.35;2.67;;;5.80;99.90;;;;;;5045282;28;20104;-71
2023/12/20 01:27:48;;;;;;;17.83;3.05;;;5.80;99.90;;;;;;5050293;28;20072;-72
2023/12/20 01:30:14;;;;;;;15.00;3.75;;;5.80;99.90;;;;;;5052306;28;20018;-71
2023/12/20 01:32:40;;;;;;;20.40;3.65;;;5.70;99.90;;;;;;5053500;28;20488;-72
2023/12/20 01:35:06;;;;;;;13.20;3.00;;;5.80;99.90;;;;;;5038517;28;20037;-71
2023/12/20 01:37:32;;;;;;;12.75;3.22;;;5.80;99.90;;;;;;5050945;28;20013;-71
2023/12/20 01:39:58;;;;;;;23.38;3.10;;;5.80;99.90;;;;;;5053816;28;20021;-71
2023/12/20 01:42:24;;;;;;;19.55;2.70;;;5.70;99.90;;;;;;5053451;28;20071;-72
2023/12/20 01:44:49;;;;;;;8.10;1.95;;;5.80;99.90;;;;;;5051492;28;20058;-71
2023/12/20 01:47:16;;;;;;;13.55;1.65;;;5.80;99.90;;;;;;5050733;28;20032;-71
2023/12/20 01:49:41;;;;;;;9.07;2.08;;;5.80;99.90;;;;;;5053140;28;20375;-72
2023/12/20 01:52:08;;;;;;;14.77;1.77;;;5.80;99.90;;;;;;5053770;28;20024;-71
2023/12/20 01:54:35;;;;;;;15.05;1.50;;;5.80;99.90;;;;;;5052645;28;20029;-72
2023/12/20 01:57:01;;;;;;;11.55;1.45;;;5.80;99.90;;;;;;5051477;28;20427;-72
2023/12/20 01:59:28;;;;;;;9.32;1.25;;;5.80;99.90;;;;;;5050085;28;20044;-72
2023/12/20 02:01:54;;;;;;;10.27;0.70;;;5.80;99.90;;;;;;5053458;28;20028;-72
2023/12/20 02:04:20;;;;;;;21.30;3.08;;;5.80;99.90;;;;;;5050352;28;20381;-72
2023/12/20 02:06:47;;;;;;;10.85;1.10;;;5.90;99.90;;;;;;5053490;28;20075;-72
2023/12/20 02:09:12;;;;;;;12.55;1.55;;;5.90;99.90;;;;;;5049865;28;20419;-72
2023/12/20 02:11:38;;;;;;;16.75;1.35;;;6.00;99.90;;;;;;5052719;28;20090;-72
2023/12/20 02:14:04;;;;;;;19.95;2.97;;;6.00;99.90;;;;;;5045499;28;20083;-72
2023/12/20 02:16:30;;;;;;;15.15;1.27;;;6.10;99.90;;;;;;5048416;28;20531;-72
2023/12/20 02:18:56;;;;;;;15.07;1.20;;;6.00;99.90;;;;;;5051117;28;20053;-72
2023/12/20 02:21:34;;;;;;;9.93;1.05;;;6.00;99.90;;;;;;5051334;28;20386;-72
2023/12/20 02:24:00;;;;;;;18.13;1.75;;;5.90;99.90;;;;;;5051509;28;20033;-72
2023/12/20 02:26:26;;;;;;;17.40;1.25;;;5.90;99.90;;;;;;5050030;28;20021;-73
2023/12/20 02:28:52;;;;;;;8.32;1.38;;;5.90;99.90;;;;;;5050334;28;20049;-72
2023/12/20 02:31:22;;;;;;;12.38;1.35;;;5.90;99.90;;;;;;5053082;28;20108;-72
2023/12/20 02:33:47;;;;;;;17.83;1.02;;;6.00;99.90;;;;;;5048293;28;20049;-72
2023/12/20 02:36:13;;;;;;;13.15;1.15;;;6.00;99.90;;;;;;5050696;28;20100;-72
2023/12/20 02:38:38;;;;;;;15.85;1.65;;;6.00;99.90;;;;;;5052363;28;20029;-72
2023/12/20 02:41:04;;;;;;;9.55;0.90;;;6.00;99.90;;;;;;5052528;28;20036;-72
2023/12/20 02:43:30;;;;;;;12.23;1.48;;;6.00;99.90;;;;;;5045318;28;20477;-72
2023/12/20 02:45:55;;;;;;;11.32;0.98;;;6.00;99.90;;;;;;5048414;28;20025;-72
2023/12/20 02:48:21;;;;;;;10.73;1.15;;;6.00;99.90;;;;;;5047286;28;20392;-72
2023/12/20 02:50:48;;;;;;;20.35;2.08;;;6.00;99.90;;;;;;5052253;28;20025;-72
2023/12/20 02:53:14;;;;;;;11.13;1.10;;;6.00;99.90;;;;;;5049997;28;20047;-72
2023/12/20 02:55:40;;;;;;;9.05;1.30;;;6.00;99.90;;;;;;5048084;28;20055;-72
2023/12/20 02:58:06;;;;;;;10.68;1.08;;;6.00;99.90;;;;;;5050820;28;20392;-72
2023/12/20 03:00:31;;;;;;;12.75;1.70;;;6.00;99.90;;;;;;5052144;28;20143;-72
2023/12/20 03:02:57;;;;;;;12.48;1.30;;;6.00;99.90;;;;;;5049791;28;20025;-72
2023/12/20 03:05:22;;;;;;;18.10;2.08;;;6.10;99.90;;;;;;5043571;28;20384;-72
2023/12/20 03:07:48;;;;;;;19.80;1.85;;;6.10;99.90;;;;;;5050311;28;20586;-72
2023/12/20 03:10:13;;;;;;;14.07;1.58;;;6.10;99.90;;;;;;5051415;28;20543;-72
2023/12/20 03:12:39;;;;;;;16.00;1.40;;;6.10;99.90;;;;;;5046701;28;20186;-72
2023/12/20 03:15:05;;;;;;;10.95;1.20;;;6.00;99.90;;;;;;5043054;28;20088;-72
2023/12/20 03:17:31;;;;;;;14.23;1.30;;;6.00;99.90;;;;;;5049253;28;20033;-72
2023/12/20 03:19:56;;;;;;;11.70;1.48;;;5.90;99.90;;;;;;5048982;28;20090;-72
2023/12/20 03:22:22;;;;;;;16.55;1.45;;;5.90;99.90;;;;;;5049151;28;20060;-72
2023/12/20 03:24:48;;;;;;;14.73;1.92;;;5.90;99.90;;;;;;5051115;28;20032;-72
2023/12/20 03:27:13;;;;;;;18.85;2.58;;;5.90;99.90;;;;;;5050028;28;20049;-72
2023/12/20 03:29:39;;;;;;;17.10;2.22;;;5.80;99.90;;;;;;5051895;28;20032;-72
2023/12/20 03:32:04;;;;;;;8.77;1.75;;;5.90;99.90;;;;;;5049147;28;20044;-72
2023/12/20 03:34:30;;;;;;;19.52;1.73;;;5.80;99.90;;;;;;5045857;28;20114;-72
2023/12/20 03:36:56;;;;;;;15.75;1.90;;;5.80;99.90;;;;;;5040749;28;20029;-72
2023/12/20 03:39:21;;;;;;;16.10;1.63;;;5.70;99.90;;;;;;5046292;28;20021;-72
2023/12/20 03:41:47;;;;;;;17.75;2.22;;;5.70;99.90;;;;;;5048848;28;20083;-72
2023/12/20 03:44:12;;;;;;;13.80;1.75;;;5.60;99.90;;;;;;5050787;28;20032;-72
2023/12/20 03:46:38;;;;;;;21.48;2.10;;;5.60;99.90;;;;;;5050964;28;20036;-72
2023/12/20 03:49:03;;;;;;;10.75;1.45;;;5.60;99.90;;;;;;5047094;28;20044;-72
2023/12/20 03:51:30;;;;;;;18.33;2.75;;;5.70;99.90;;;;;;5048347;28;20543;-72
2023/12/20 03:53:55;;;;;;;16.98;1.80;;;5.70;99.90;;;;;;5048672;28;20052;-72
2023/12/20 03:56:21;;;;;;;16.67;1.52;;;5.80;99.90;;;;;;5050212;28;20385;-72
2023/12/20 03:58:47;;;;;;;15.60;2.05;;;5.80;99.90;;;;;;5049745;28;20025;-72
2023/12/20 04:01:12;;;;;;;27.38;4.40;;;5.90;99.90;;;;;;5051786;28;20062;-72
2023/12/20 04:03:40;;;;;;;21.63;2.13;;;5.90;99.90;;;;;;5047758;28;20096;-72
2023/12/20 04:06:05;;;;;;;15.75;1.52;;;6.00;99.90;;;;;;5050145;28;20017;-72
2023/12/20 04:08:31;;;;;;;17.08;1.73;;;6.00;99.90;;;;;;5050109;28;20055;-72
2023/12/20 04:10:57;;;;;;;20.17;2.08;;;6.10;99.90;;;;;;5047558;28;20027;-72
2023/12/20 04:13:22;;;;;;;18.85;1.77;;;6.10;99.90;;;;;;5044992;28;20041;-72
2023/12/20 04:15:50;;;;;;;12.23;1.70;;;6.10;99.90;;;;;;5047802;28;20029;-72
2023/12/20 04:18:15;;;;;;;21.08;2.05;;;6.10;99.90;;;;;;5049871;28;20051;-72
2023/12/20 04:20:41;;;;;;;10.27;2.00;;;6.10;99.90;;;;;;5048913;28;20028;-72
2023/12/20 04:23:06;;;;;;;16.90;2.65;;;6.10;99.90;;;;;;5037654;28;20096;-72
2023/12/20 04:25:32;;;;;;;13.32;2.53;;;6.10;99.90;;;;;;5049264;28;20028;-72
2023/12/20 04:27:57;;;;;;;10.93;1.80;;;6.20;99.90;;;;;;5049344;28;20072;-72
2023/12/20 04:30:23;;;;;;;17.27;1.70;;;6.20;99.90;;;;;;5048903;28;20029;-72
2023/12/20 04:32:49;;;;;;;16.92;1.90;;;6.20;99.90;;;;;;5048412;28;20074;-72
2023/12/20 04:35:15;;;;;;;17.92;2.45;;;6.30;99.90;;;;;;5045515;28;20086;-72
2023/12/20 04:37:40;;;;;;;21.27;2.78;;;6.30;99.90;;;;;;5047966;28;20021;-72
2023/12/20 04:40:08;;;;;;;14.38;2.95;;;6.30;99.90;;;;;;5048492;28;20040;-72
2023/12/20 04:42:33;;;;;;;16.65;3.35;;;6.20;99.90;;;;;;5049808;28;20021;-72
2023/12/20 04:44:59;;;;;;;15.32;1.98;;;6.20;99.90;;;;;;5050133;28;20396;-72
2023/12/20 04:47:24;;;;;;;17.90;2.13;;;6.20;99.90;;;;;;5048620;28;20029;-72
2023/12/20 04:49:50;;;;;;;14.05;1.67;;;6.20;99.90;;;;;;5048284;28;20033;-72
2023/12/20 04:52:15;;;;;;;23.50;2.30;;;6.20;99.90;;;;;;5047096;28;20029;-72
2023/12/20 04:54:41;;;;;;;23.23;2.78;;;6.30;99.90;;;;;;5045220;28;20069;-72
2023/12/20 04:57:06;;;;;;;13.32;1.65;;;6.30;99.90;;;;;;5050374;28;20384;-72
2023/12/20 04:59:32;;;;;;;23.52;2.55;;;6.40;99.90;;;;;;5048063;28;20029;-72
2023/12/20 05:01:58;;;;;;;16.00;2.13;;;6.40;99.90;;;;;;5049018;28;20021;-72
2023/12/20 05:04:24;;;;;;;23.95;1.90;;;6.50;99.90;;;;;;5046203;28;20037;-72
2023/12/20 05:06:50;;;;;;;21.08;2.15;;;6.40;99.90;;;;;;5050214;28;20036;-72
2023/12/20 05:09:16;;;;;;;17.10;1.92;;;6.50;99.90;;;;;;5043062;28;20488;-72
2023/12/20 05:11:41;;;;;;;15.82;1.33;;;6.60;99.90;;;;;;5042056;28;20072;-72
2023/12/20 05:14:07;;;;;;;14.75;1.65;;;6.60;99.90;;;;;;5047672;28;20053;-72
2023/12/20 05:16:32;;;;;;;12.80;1.77;;;6.60;99.90;;;;;;5047665;28;20440;-72
2023/12/20 05:19:00;;;;;;;17.98;1.45;;;6.60;99.90;;;;;;5046050;28;20071;-72
2023/12/20 05:21:26;;;;;;;16.85;1.63;;;6.60;99.90;;;;;;5045313;28;20103;-72
2023/12/20 05:23:51;;;;;;;18.17;1.90;;;6.70;99.90;;;;;;5048693;28;20478;-72
2023/12/20 05:26:17;;;;;;;16.90;1.95;;;6.70;99.90;;;;;;5048502;28;20389;-72
2023/12/20 05:28:43;;;;;;;16.58;1.90;;;6.70;99.90;;;;;;5048018;28;20033;-72
2023/12/20 05:31:08;;;;;;;17.42;2.20;;;6.70;99.90;;;;;;5048499;28;20041;-72
2023/12/20 05:33:34;;;;;;;18.40;1.85;;;6.80;99.90;;;;;;5048754;28;20065;-72
2023/12/20 05:36:00;;;;;;;12.52;1.92;;;6.80;99.90;;;;;;5053793;28;20021;-72
2023/12/20 05:38:26;;;;;;;24.35;1.50;;;6.80;99.90;;;;;;5051170;28;20040;-72
2023/12/20 05:40:51;;;;;;;19.00;2.00;;;6.80;99.90;;;;;;5050179;28;20537;-72
2023/12/20 05:43:17;;;;;;;20.73;1.58;;;6.80;99.90;;;;;;5053745;28;20123;-72
2023/12/20 05:45:42;;;;;;;17.98;2.63;;;6.90;99.90;;;;;;5053450;28;20047;-72
2023/12/20 05:48:08;;;;;;;25.27;2.95;;;6.90;99.90;;;;;;5051563;28;20028;-72
2023/12/20 05:50:34;;;;;;;15.30;1.85;;;6.90;99.90;;;;;;5051601;28;20163;-72
2023/12/20 05:53:00;;;;;;;14.88;1.88;;;6.90;99.90;;;;;;5053435;28;20043;-72
2023/12/20 05:55:26;;;;;;;15.85;1.98;;;7.00;99.90;;;;;;5053276;28;20649;-72
2023/12/20 05:57:52;;;;;;;22.15;1.88;;;7.00;99.90;;;;;;5052106;28;20049;-73
2023/12/20 06:00:18;;;;;;;17.73;2.28;;;7.00;99.90;;;;;;5053032;28;20028;-72
2023/12/20 06:02:43;;;;;;;17.75;2.08;;;7.00;99.90;;;;;;5047906;28;20035;-72
2023/12/20 06:05:09;;;;;;;28.13;2.08;;;7.00;99.90;;;;;;5052870;28;20401;-72
2023/12/20 06:07:34;;;;;;;18.67;3.03;;;7.00;99.90;;;;;;5053117;28;20108;-72
2023/12/20 06:10:00;;;;;;;15.55;2.13;;;7.00;99.90;;;;;;5049652;28;20047;-72
2023/12/20 06:12:27;;;;;;;19.63;1.85;;;7.00;99.90;;;;;;5044992;28;20102;-72
2023/12/20 06:14:52;;;;;;;22.30;2.47;;;7.00;99.90;;;;;;5040122;28;20029;-72
2023/12/20 06:17:18;;;;;;;19.88;1.60;;;7.00;99.90;;;;;;5048070;28;20033;-72
2023/12/20 06:19:47;;;;;;;16.92;1.40;;;7.00;99.90;;;;;;5042246;28;20092;-72
2023/12/20 06:22:13;;;;;;;13.98;1.85;;;7.00;99.90;;;;;;5051021;28;20051;-72
2023/12/20 06:24:39;;;;;;;21.38;2.10;;;7.00;99.90;;;;;;5045914;28;20025;-72
2023/12/20 06:27:04;;;;;;;16.83;1.20;;;6.90;99.90;;;;;;5043592;28;20025;-72
2023/12/20 06:29:31;;;;;;;13.93;1.30;;;7.00;99.90;;;;;;5043304;28;20041;-72
2023/12/20 06:31:56;;;;;;;11.57;1.10;;;7.00;99.90;;;;;;5045577;28;20079;-72
2023/12/20 06:34:22;;;;;;;11.13;1.30;;;6.90;99.90;;;;;;5044752;28;20053;-72
2023/12/20 06:36:47;;;;;;;20.25;1.58;;;7.00;99.90;;;;;;5042455;28;20028;-72
2023/12/20 06:39:13;;;;;;;19.08;1.67;;;7.00;99.90;;;;;;5048950;28;20124;-72
2023/12/20 06:41:39;;;;;;;11.57;2.35;;;7.00;99.90;;;;;;5049358;28;20496;-73
2023/12/20 06:44:05;;;;;;;16.88;2.10;;;7.00;99.90;;;;;;5047298;28;20083;-72
2023/12/20 06:46:30;;;;;;;16.73;1.20;;;7.00;99.90;;;;;;5039269;28;20041;-72
2023/12/20 06:48:56;;;;;;;14.90;1.60;;;7.00;99.90;;;;;;5050370;28;20041;-72
2023/12/20 06:51:25;;;;;;;16.73;2.15;;;7.00;99.90;;;;;;5049546;28;20030;-72
2023/12/20 06:53:51;;;;;;;20.95;1.92;;;7.10;99.90;;;;;;5047963;28;20060;-72
2023/12/20 06:56:17;;;;;;;18.27;3.75;;;7.00;99.90;;;;;;5043554;28;20031;-72
2023/12/20 06:58:42;;;;;;;14.27;1.48;;;7.00;99.90;;;;;;5044225;28;20033;-72
2023/12/20 07:01:12;;;;;;;21.95;2.20;;;7.00;99.90;;;;;;5050012;28;20025;-72
2023/12/20 07:03:38;;;;;;;26.52;2.30;;;7.00;99.90;;;;;;5044416;28;20021;-72
2023/12/20 07:06:04;;;;;;;16.20;2.30;;;7.00;99.90;;;;;;5045218;28;20090;-72
2023/12/20 07:08:29;;;;;;;19.05;1.42;;;7.00;99.90;;;;;;5051240;28;20033;-73
2023/12/20 07:10:55;;;;;;;19.85;2.08;;;7.00;99.90;;;;;;5044027;28;20056;-72
2023/12/20 07:13:22;;;;;;;18.65;2.22;;;7.00;99.90;;;;;;5048189;28;20052;-72
2023/12/20 07:15:47;;;;;;;23.00;1.77;;;7.00;99.90;;;;;;5050263;28;20025;-73
2023/12/20 07:18:13;;;;;;;24.33;2.75;;;7.00;99.90;;;;;;5052214;28;20025;-73
2023/12/20 07:20:38;;;;;;;15.35;2.22;;;7.00;99.90;;;;;;5048556;28;20477;-73
2023/12/20 07:23:04;;;;;;;12.43;1.38;;;7.00;99.90;;;;;;5051923;28;20036;-73
2023/12/20 07:25:32;;;;;;;22.95;2.45;;;7.00;99.90;;;;;;5049261;28;20029;-73
2023/12/20 07:27:58;;;;;;;21.58;2.42;;;7.00;99.90;;;;;;5051277;28;20033;-73
2023/12/20 07:30:23;;;;;;;13.55;1.27;;;7.00;99.90;;;;;;5049038;28;20028;-73
2023/12/20 07:32:49;;;;;;;18.23;1.98;;;7.00;99.90;;;;;;5050613;28;20104;-73
2023/12/20 07:35:17;;;;;;;20.08;1.38;;;7.00;99.90;;;;;;5032343;28;20049;-73
2023/12/20 07:37:43;;;;;;;14.68;2.22;;;7.00;99.90;;;;;;5044371;28;20025;-72
2023/12/20 07:40:09;;;;;;;23.10;2.20;;;7.00;99.90;;;;;;5042139;28;20484;-73
2023/12/20 07:42:34;;;;;;;20.98;2.20;;;7.00;99.90;;;;;;5050175;28;20049;-72
2023/12/20 07:45:00;;;;;;;11.98;1.40;;;7.00;99.90;;;;;;5044522;28;20227;-72
2023/12/20 07:47:26;;;;;;;20.88;1.80;;;7.10;99.90;;;;;;5050882;28;20025;-72
2023/12/20 07:49:52;;;;;;;12.18;1.33;;;7.10;99.90;;;;;;5047753;28;20032;-72
2023/12/20 07:52:18;;;;;;;17.75;2.22;;;7.10;99.90;;;;;;5050049;28;20053;-73
2023/12/20 07:54:45;;;;;;;25.55;2.50;;;7.10;99.90;;;;;;5049436;28;20071;-73
2023/12/20 07:57:11;;;;;;;13.88;1.35;;;7.10;99.90;;;;;;5043682;28;20017;-72
2023/12/20 07:59:37;;;;;;;21.08;2.30;;;7.20;99.90;;;;;;5047463;28;20555;-72
2023/12/20 08:02:03;;;;;;;18.42;1.60;;;7.10;99.90;;;;;;5044850;28;20103;-73
2023/12/20 08:04:29;;;;;;;18.73;2.33;;;7.20;99.90;;;;;;5044544;28;20439;-71
2023/12/20 08:06:55;;;;;;;16.40;1.85;;;7.20;99.90;;;;;;5037345;28;20025;-72
2023/12/20 08:09:21;;;;;;;23.38;2.63;;;7.10;99.90;;;;;;5036501;28;20132;-72
2023/12/20 08:11:47;;;;;;;21.42;2.88;;;7.10;99.90;;;;;;5036228;28;20029;-72
2023/12/20 08:14:13;;;;;;;19.73;1.67;;;7.20;99.90;;;;;;5036004;28;20039;-72
2023/12/20 08:16:39;;;;;;;15.18;1.55;;;7.20;99.90;;;;;;5037843;28;20029;-71
2023/12/20 08:19:04;;;;;;;13.88;1.63;;;7.20;99.90;;;;;;5034965;28;20024;-72
2023/12/20 08:21:30;;;;;;;16.25;2.13;;;7.20;99.90;;;;;;5037461;28;20638;-72
2023/12/20 08:23:56;;;;;;;17.20;1.80;;;7.10;99.90;;;;;;5033708;28;20082;-72
2023/12/20 08:26:22;;;;;;;14.80;1.80;;;7.10;99.90;;;;;;5037282;28;20017;-71
2023/12/20 08:28:49;;;;;;;18.73;1.45;;;7.20;99.90;;;;;;5038194;28;20051;-72
2023/12/20 08:31:16;;;;;;;12.75;2.40;;;7.10;99.90;;;;;;5042048;28;20536;-72
2023/12/20 08:33:45;;;;;;;17.33;1.45;;;7.10;99.90;;;;;;5029393;28;20064;-71
2023/12/20 08:36:11;;;;;;;21.33;1.98;;;7.20;99.90;;;;;;5041398;28;20021;-72
2023/12/20 08:38:37;;;;;;;16.75;1.50;;;7.20;99.90;;;;;;5035641;28;20492;-72
2023/12/20 08:41:04;;;;;;;17.73;1.75;;;7.20;99.90;;;;;;5036550;28;20071;-72
2023/12/20 08:43:31;;;;;;;16.27;3.20;;;7.10;99.90;;;;;;5047998;28;20507;-72
2023/12/20 08:45:56;;;;;;;23.35;2.25;;;7.20;99.90;;;;;;5049090;28;21017;-72
2023/12/20 08:48:22;;;;;;;12.60;1.60;;;7.10;99.90;;;;;;5046946;28;20037;-72
2023/12/20 08:50:49;;;;;;;20.50;1.60;;;7.10;99.90;;;;;;5047090;28;20029;-72
2023/12/20 08:53:16;;;;;;;15.63;1.20;;;7.10;99.90;;;;;;5048039;28;20033;-72
2023/12/20 08:55:41;;;;;;;14.88;1.60;;;7.10;99.90;;;;;;5032248;28;20583;-72
2023/12/20 08:58:08;;;;;;;18.00;2.00;;;7.20;99.90;;;;;;5025575;28;20029;-72
2023/12/20 09:00:34;;;;;;;17.40;1.50;;;7.20;99.90;;;;;;5045531;28;20114;-72
2023/12/20 09:03:00;;;;;;;12.25;1.60;;;7.20;99.90;;;;;;5046938;28;20116;-72
2023/12/20 09:05:25;;;;;;;13.20;1.85;;;7.20;99.90;;;;;;5040558;28;20989;-72
2023/12/20 09:07:51;;;;;;;16.23;1.40;;;7.20;99.90;;;;;;5043097;28;20424;-71
2023/12/20 09:10:21;;;;;;;20.20;1.75;;;7.20;99.90;;;;;;5043482;28;20042;-70
2023/12/20 09:12:50;;;;;;;19.25;1.27;;;7.20;99.90;;;;;;5043923;28;20028;-72
2023/12/20 09:15:16;;;;;;;16.02;1.98;;;7.20;99.90;;;;;;5030126;28;20135;-72
2023/12/20 09:17:42;;;;;;;14.20;1.08;;;7.20;99.90;;;;;;5040920;28;20529;-73
2023/12/20 09:20:08;;;;;;;19.35;1.65;;;7.20;99.90;;;;;;5035630;28;20030;-72
2023/12/20 09:22:34;;;;;;;13.45;0.80;;;7.30;99.90;;;;;;5034811;28;20044;-72
2023/12/20 09:25:01;;;;;;;15.50;1.55;;;7.30;99.90;;;;;;5033449;28;20392;-73
2023/12/20 09:27:27;;;;;;;11.65;1.40;;;7.30;99.90;;;;;;5030410;28;20033;-73
2023/12/20 09:29:53;;;;;;;19.27;2.22;;;7.30;99.90;;;;;;5024657;28;20115;-72
2023/12/20 09:32:20;;;;;;;16.45;1.33;;;7.30;99.90;;;;;;5035985;28;20505;-72
2023/12/20 09:34:46;;;;;;;13.32;1.02;;;7.30;99.90;;;;;;5039119;28;20053;-72
2023/12/20 09:37:11;;;;;;;19.05;1.40;;;7.20;99.90;;;;;;5034235;28;20353;-72
2023/12/20 09:39:37;;;;;;;25.05;2.30;;;7.20;99.90;;;;;;5040242;28;20025;-73
2023/12/20 09:42:06;;;;;;;14.63;1.70;;;7.20;99.90;;;;;;5040593;28;20485;-72
2023/12/20 09:44:34;;;;;;;22.67;1.90;;;7.20;99.90;;;;;;5032552;28;20084;-72
2023/12/20 09:47:05;;;;;;;17.92;1.30;;;7.20;99.90;;;;;;5030406;28;20043;-72
2023/12/20 09:49:32;;;;;;;16.73;1.20;;;7.30;99.90;;;;;;5027621;28;20493;-73
2023/12/20 09:51:59;;;;;;;13.20;1.38;;;7.30;99.90;;;;;;5032616;28;20119;-72
2023/12/20 09:54:26;;;;;;;13.15;1.73;;;7.30;99.90;;;;;;5032301;28;20025;-73
2023/12/20 09:56:51;;;;;;;19.35;1.63;;;7.30;99.90;;;;;;5039979;28;20029;-74
2023/12/20 09:59:17;;;;;;;14.27;1.30;;;7.30;99.90;;;;;;5048247;28;20424;-73
2023/12/20 10:01:43;;;;;;;16.67;1.60;;;7.30;99.90;;;;;;5052592;28;20392;-73
2023/12/20 10:04:12;;;;;;;21.92;2.45;;;7.30;99.90;;;;;;5054454;28;20021;-71
2023/12/20 10:06:41;;;;;;;13.98;2.25;;;7.30;99.90;;;;;;5053804;28;20021;-71
2023/12/20 10:09:07;;;;;;;17.40;1.38;;;7.30;99.90;;;;;;5053531;28;20068;-71
2023/12/20 10:11:35;;;;;;;22.05;1.48;;;7.40;99.90;;;;;;5054733;28;20025;-71
2023/12/20 10:14:01;;;;;;;16.95;1.70;;;7.40;99.90;;;;;;5050721;28;20086;-71
2023/12/20 10:16:27;;;;;;;20.50;1.48;;;7.30;99.90;;;;;;5046901;28;20024;-71
2023/12/20 10:18:54;;;;;;;17.85;1.55;;;7.40;99.90;;;;;;5044310;28;20044;-72
2023/12/20 10:21:20;;;;;;;17.33;2.22;;;7.30;99.90;;;;;;5046717;28;20070;-72
2023/12/20 10:23:45;;;;;;;21.92;2.25;;;7.30;99.90;;;;;;5042295;28;20033;-73
2023/12/20 10:26:20;;;;;;;18.35;1.70;;;7.30;99.90;;;;;;5041886;28;20029;-72
2023/12/20 10:28:46;;;;;;;14.07;1.65;;;7.40;99.90;;;;;;5042516;28;20079;-72
2023/12/20 10:31:29;;;;;;;21.00;2.10;;;7.40;99.90;;;;;;5043840;28;20071;-72
2023/12/20 10:33:59;;;;;;;14.82;1.45;;;7.40;99.90;;;;;;5042927;28;20041;-71
2023/12/20 10:36:26;;;;;;;19.42;1.45;;;7.40;99.90;;;;;;5041483;28;20028;-72
2023/12/20 10:38:53;;;;;;;20.63;1.70;;;7.40;99.90;;;;;;5038992;28;20032;-71
2023/12/20 10:41:31;;;;;;;17.27;2.15;;;7.40;99.90;;;;;;5030862;28;20033;-72
2023/12/20 10:44:01;;;;;;;22.92;2.67;;;7.50;99.90;;;;;;5036992;28;20021;-72
2023/12/20 10:46:30;;;;;;;19.98;2.22;;;7.40;99.90;;;;;;5033842;28;20140;-72
2023/12/20 10:48:57;;;;;;;25.70;2.65;;;7.40;99.90;;;;;;5036040;28;20064;-72
2023/12/20 10:51:26;;;;;;;22.60;1.95;;;7.50;99.90;;;;;;5046505;28;20132;-71
2023/12/20 10:53:53;;;;;;;13.05;1.40;;;7.40;99.90;;;;;;5044705;28;20140;-71
2023/12/20 10:56:20;;;;;;;17.50;1.88;;;7.50;99.90;;;;;;5037763;28;20039;-71
2023/12/20 10:58:48;;;;;;;13.68;1.45;;;7.50;99.90;;;;;;5046153;28;20083;-72
2023/12/20 11:01:14;;;;;;;18.00;1.75;;;7.50;99.90;;;;;;5044991;28;20051;-71
2023/12/20 11:03:53;;;;;;;17.52;1.92;;;7.60;99.90;;;;;;5043680;28;20039;-71
2023/12/20 11:06:40;;;;;;;18.55;1.83;;;7.60;99.90;;;;;;5046986;28;20033;-72
2023/12/20 11:09:27;;;;;;;21.08;2.08;;;7.70;99.90;;;;;;5045825;28;20032;-73
2023/12/20 11:12:14;;;;;;;21.13;2.55;;;7.70;99.90;;;;;;5048088;28;20086;-73
2023/12/20 11:15:02;;;;;;;27.77;2.35;;;7.80;99.90;;;;;;5048914;28;20118;-72
2023/12/20 11:17:28;;;;;;;18.23;1.92;;;7.80;99.90;;;;;;5043598;28;20033;-73
2023/12/20 11:20:12;;;;;;;16.58;1.70;;;7.90;99.90;;;;;;5046230;28;20499;-72
2023/12/20 11:22:41;;;;;;;11.10;1.02;;;7.90;99.90;;;;;;5049997;28;20043;-73
2023/12/20 11:25:09;;;;;;;17.67;1.52;;;7.90;99.90;;;;;;5047410;28;20130;-72
2023/12/20 11:27:35;;;;;;;19.33;1.83;;;8.00;99.90;;;;;;5050092;28;20251;-73
2023/12/20 11:30:06;;;;;;;17.95;2.15;;;8.00;99.90;;;;;;5053006;28;20033;-72
2023/12/20 11:32:34;;;;;;;14.90;1.27;;;8.00;99.90;;;;;;5057412;28;20021;-72
2023/12/20 11:35:17;;;;;;;14.70;1.42;;;8.00;99.90;;;;;;5065717;28;20392;-72
2023/12/20 11:37:42;;;;;;;;;;;8.10;99.90;;;;;;5060601;28;20115;-72
2023/12/20 11:40:12;;;;;;;20.30;1.65;;;8.10;99.90;;;;;;5051797;28;19952;-72
2023/12/20 11:42:39;;;;;;;17.42;1.50;;;8.10;99.90;;;;;;5046523;28;20036;-73
2023/12/20 11:45:08;;;;;;;15.45;1.83;;;8.10;99.90;;;;;;5052706;28;20107;-73
2023/12/20 11:47:34;;;;;;;20.80;1.58;;;8.10;99.90;;;;;;5050054;28;20025;-73
2023/12/20 11:50:03;;;;;;;16.30;1.90;;;8.10;99.90;;;;;;5049248;28;20040;-73
2023/12/20 11:52:29;;;;;;;19.92;2.33;;;8.10;99.90;;;;;;5036954;28;20397;-73
2023/12/20 11:54:54;;;;;;;20.98;1.15;;;8.10;99.90;;;;;;5037665;28;20033;-72
2023/12/20 11:57:20;;;;;;;25.02;1.95;;;8.20;99.90;;;;;;5038251;28;20096;-73
2023/12/20 11:59:46;;;;;;;16.10;1.95;;;8.10;99.90;;;;;;5042500;28;20040;-73
2023/12/20 12:02:12;;;;;;;23.08;2.63;;;8.10;99.90;;;;;;5047714;28;20036;-73
2023/12/20 12:04:38;;;;;;;24.40;2.70;;;8.10;99.90;;;;;;5049054;28;20029;-73
2023/12/20 12:07:04;;;;;;;16.20;1.40;;;8.10;99.90;;;;;;5044909;28;20049;-72
2023/12/20 12:09:29;;;;;;;14.85;2.28;;;8.10;99.90;;;;;;5045039;28;20382;-72
2023/12/20 12:11:55;;;;;;;20.55;2.63;;;8.20;99.90;;;;;;5043782;28;20024;-72
2023/12/20 12:14:21;;;;;;;15.95;1.50;;;8.20;99.90;;;;;;5042052;28;20108;-73
2023/12/20 12:16:47;;;;;;;21.45;1.70;;;8.20;99.90;;;;;;5042166;28;20075;-72
2023/12/20 12:19:23;;;;;;;9.77;0.90;;;8.30;99.90;;;;;;5047732;28;20021;-72
2023/12/20 12:22:07;;;;;;;13.77;1.42;;;8.30;99.90;;;;;;5040495;28;20848;-72
2023/12/20 12:24:32;;;;;;;15.85;1.42;;;8.30;99.90;;;;;;5047494;28;20064;-72
2023/12/20 12:26:58;;;;;;;23.88;3.78;;;8.30;99.90;;;;;;5046944;28;20519;-72
2023/12/20 12:29:27;;;;;;;20.40;2.05;;;8.30;99.90;;;;;;5048289;28;20029;-72
2023/12/20 12:31:52;;;;;;;15.48;2.20;;;8.40;99.90;;;;;;5043869;28;20025;-73
2023/12/20 12:34:18;;;;;;;16.65;1.90;;;8.40;99.90;;;;;;5048154;28;20056;-73
2023/12/20 12:36:44;;;;;;;13.07;1.17;;;8.50;99.90;;;;;;5046006;28;20618;-73
2023/12/20 12:39:12;;;;;;;21.13;2.22;;;8.50;99.90;;;;;;5045148;28;20496;-73
2023/12/20 12:41:38;;;;;;;31.15;2.92;;;8.50;99.90;;;;;;5040879;28;20392;-73
2023/12/20 12:44:03;;;;;;;19.55;1.85;;;8.60;99.90;;;;;;5039673;28;20021;-73